Terminal Aerodrome Forecast
Issued by NWS

Current Version | Previous Version | Text Only | Print | Product List | Glossary On
Versions: 1 2 3 4 5 6 7 8 9 10 11 12 13 14 15 16 17
858
FTUS43 KDTX 250110 AAA
TAFDET
TAF AMD
KDET 250110Z 2501/2524 08007KT P6SM -SHRA OVC050
      TEMPO 2501/2503 4SM TSRA SCT025 OVC035CB
     FM250300 06006KT P6SM -SHRA BKN025 OVC035
     FM250500 05006KT 4SM -RA BR OVC012
     FM250700 04010KT 2SM -RA BR OVC008
     FM250900 05007KT 1 1/2SM -RA BR OVC004
     FM251500 06010KT 4SM -DZ BR OVC008=

USA.gov is the U.S. government's official web portal to all federal, state and local government web resources and services.